This is the latest recevied weather packets stored in our database for station/object OE-11272. If no packets are shown the sender has not sent any weather packets the latest 10 day(s).
| Time | Temp. | Humidity | Pressure | Rain* | Wind** | Luminosity | Snow |
|---|---|---|---|---|---|---|---|
| 1787990725 | 18.33° C | 80% | 1016.9 hPa | 0 mm | - | 162 W/m² | - |
| 1787990126 | 18.33° C | 82% | 1016.9 hPa | 0 mm | - | 206 W/m² | - |
| 1787989298 | 18.33° C | 84% | 1016.9 hPa | 0 mm | - | 231 W/m² | - |
| 1787988325 | 17.22° C | 87% | 1016.9 hPa | 0 mm | - | 144 W/m² | - |
| 1787987499 | 17.22° C | 87% | 1016.9 hPa | 0 mm | - | 137 W/m² | - |
| 1787987126 | 17.22° C | 85% | 1017 hPa | 0 mm | - | 169 W/m² | - |
| 1787986526 | 16.67° C | 85% | 1017 hPa | 0 mm | - | 137 W/m² | - |
| 1787985699 | 16.67° C | 86% | 1016.9 hPa | 0 mm | - | 131 W/m² | - |
| 1787985325 | 16.67° C | 85% | 1016.9 hPa | 0 mm | - | 125 W/m² | - |
| 1787984726 | 16.67° C | 84% | 1017 hPa | 0 mm | - | 175 W/m² | - |
| 1787983899 | 16.67° C | 83% | 1017 hPa | 0 mm | - | 100 W/m² | - |
| 1787982926 | 16.11° C | 91% | 1017.1 hPa | 0 mm | - | 56 W/m² | - |
| 1787982098 | 15.56° C | 92% | 1016.9 hPa | 0 mm | - | 44 W/m² | - |
| 1787981726 | 16.11° C | 92% | 1016.8 hPa | 0 mm | - | 31 W/m² | - |
| 1787981125 | 16.67° C | 85% | 1016.5 hPa | 0 mm | - | 19 W/m² | - |
| 1787980298 | 17.78° C | 68% | 1016 hPa | 0 mm | - | 19 W/m² | - |
| 1787979925 | 17.22° C | 76% | 1016 hPa | 0 mm | - | 12 W/m² | - |
| 1787979326 | 18.33° C | 64% | 1015.6 hPa | 0 mm | - | 6 W/m² | - |
| 1787978499 | 17.22° C | 79% | 1015.8 hPa | 0 mm | - | 0 W/m² | - |
| 1787978125 | 17.78° C | 69% | 1015.7 hPa | 0 mm | - | 0 W/m² | - |
| 1787977526 | 18.33° C | 64% | 1015.6 hPa | 0 mm | - | 0 W/m² | - |
| 1787976699 | 18.33° C | 64% | 1015.5 hPa | 0 mm | - | 0 W/m² | - |
| 1787976326 | 18.33° C | 70% | 1015.8 hPa | 0 mm | - | 0 W/m² | - |
| 1787975726 | 19.44° C | 58% | 1015.6 hPa | 0 mm | - | 0 W/m² | - |
| 1787975126 | 18.89° C | 62% | 1015.6 hPa | 0 mm | - | 0 W/m² | - |
* Rain latest hour (hover to see other rain measurements)
** Current wind speed in m/s (hover to see current wind gust speed)